createdAt,value
2019-05-21T00:01:28.816Z,0.68
2019-05-21T00:03:57.221Z,0.95
2019-05-21T00:06:25.600Z,0.72
2019-05-21T00:08:53.986Z,1.87
2019-05-21T00:11:22.360Z,1.65
2019-05-21T00:13:50.770Z,1.15
2019-05-21T00:16:19.123Z,0.90
2019-05-21T00:18:47.791Z,0.85
2019-05-21T00:21:16.201Z,2.72
2019-05-21T00:23:44.566Z,0.72
2019-05-21T00:26:13.224Z,0.90
2019-05-21T00:28:40.462Z,0.78
2019-05-21T00:31:45.527Z,0.90
2019-05-21T00:34:50.302Z,1.77
2019-05-21T00:37:55.179Z,1.10
2019-05-21T00:41:00.142Z,1.07
2019-05-21T00:43:40.522Z,0.90
2019-05-21T00:46:09.268Z,1.92
2019-05-21T00:48:37.657Z,1.15
2019-05-21T00:51:06.346Z,1.40
2019-05-21T00:53:34.751Z,1.40
2019-05-21T00:56:03.149Z,1.35
2019-05-21T00:58:31.585Z,1.52
2019-05-21T01:00:59.956Z,1.00
2019-05-21T01:03:28.353Z,2.00
2019-05-21T01:05:56.755Z,0.80
2019-05-21T01:08:25.135Z,0.70
2019-05-21T01:10:53.783Z,0.82
2019-05-21T01:13:22.181Z,0.80
2019-05-21T01:15:50.578Z,1.82
2019-05-21T01:18:18.967Z,0.80
2019-05-21T01:20:47.371Z,0.82
2019-05-21T01:23:15.765Z,0.60
2019-05-21T01:25:44.479Z,0.37
2019-05-21T01:28:13.161Z,0.40
2019-05-21T01:30:41.568Z,1.22
2019-05-21T01:33:09.955Z,0.60
2019-05-21T01:35:38.601Z,0.85
2019-05-21T01:38:06.990Z,0.45
2019-05-21T01:40:35.408Z,0.62
2019-05-21T01:43:03.805Z,0.78
2019-05-21T01:45:32.224Z,1.20
2019-05-21T01:48:00.609Z,0.90
2019-05-21T01:50:29.022Z,1.82
2019-05-21T01:52:57.695Z,1.80
2019-05-21T01:55:26.095Z,1.25
2019-05-21T01:57:54.850Z,0.90
2019-05-21T02:00:23.254Z,1.30
2019-05-21T02:02:51.691Z,1.90
2019-05-21T02:05:32.638Z,1.07
2019-05-21T02:07:50.500Z,1.25
2019-05-21T02:10:18.900Z,1.45
2019-05-21T02:12:47.295Z,3.27
2019-05-21T02:15:16.206Z,2.37
2019-05-21T02:17:44.594Z,2.87
2019-05-21T02:20:13.141Z,2.42
2019-05-21T02:22:41.577Z,3.60
2019-05-21T02:25:10.602Z,3.08
2019-05-21T02:27:39.399Z,3.47
2019-05-21T02:30:10.150Z,3.52
2019-05-21T02:32:38.914Z,3.30
2019-05-21T02:35:07.928Z,4.30
2019-05-21T02:37:36.425Z,4.55
2019-05-21T02:40:06.726Z,4.87
2019-05-21T02:42:35.503Z,5.83
2019-05-21T02:45:05.642Z,6.58
2019-05-21T02:47:34.046Z,6.12
2019-05-21T02:50:02.446Z,5.25
2019-05-21T02:52:31.172Z,5.08
2019-05-21T02:54:59.557Z,6.33
2019-05-21T02:57:43.049Z,5.47
2019-05-21T03:00:21.753Z,4.50
2019-05-21T03:02:50.145Z,4.50
2019-05-21T03:05:18.544Z,4.25
2019-05-21T03:07:46.945Z,4.53
2019-05-21T03:10:15.942Z,5.35
2019-05-21T03:12:44.348Z,5.30
2019-05-21T03:15:13.312Z,4.05
2019-05-21T03:17:42.002Z,3.65
2019-05-21T03:20:12.327Z,4.53
2019-05-21T03:22:41.011Z,4.58
2019-05-21T03:25:10.055Z,3.72
2019-05-21T03:27:38.457Z,3.05
2019-05-21T03:30:10.273Z,3.12
2019-05-21T03:32:38.669Z,2.70
2019-05-21T03:35:08.111Z,2.92
2019-05-21T03:37:36.558Z,3.15
2019-05-21T03:40:09.054Z,2.35
2019-05-21T03:42:37.778Z,2.90
2019-05-21T03:45:08.090Z,1.75
2019-05-21T03:47:36.790Z,3.27
2019-05-21T03:50:06.623Z,2.75
2019-05-21T03:52:35.397Z,2.72
2019-05-21T03:55:04.150Z,2.42
2019-05-21T03:57:32.558Z,3.95
2019-05-21T04:00:00.952Z,2.90
2019-05-21T04:02:29.734Z,2.20
2019-05-21T04:04:58.167Z,2.00
2019-05-21T04:07:26.553Z,2.20
2019-05-21T04:09:54.943Z,1.45
2019-05-21T04:12:23.380Z,1.75
2019-05-21T04:14:53.794Z,1.50
2019-05-21T04:17:23.835Z,1.45
2019-05-21T04:19:52.795Z,1.70
2019-05-21T04:22:21.471Z,1.50
2019-05-21T04:24:50.163Z,1.40
2019-05-21T04:27:18.868Z,1.62
2019-05-21T04:29:47.250Z,2.67
2019-05-21T04:32:15.656Z,2.20
2019-05-21T04:34:44.049Z,1.47
2019-05-21T04:37:16.939Z,2.55
2019-05-21T04:39:42.614Z,1.87
2019-05-21T04:42:11.013Z,2.92
2019-05-21T04:44:39.410Z,3.55
2019-05-21T04:47:08.128Z,1.75
2019-05-21T04:49:36.521Z,1.77
2019-05-21T04:52:04.919Z,1.50
2019-05-21T04:54:33.303Z,2.40
2019-05-21T04:57:02.065Z,1.20
2019-05-21T04:59:30.720Z,1.32
2019-05-21T05:01:59.163Z,1.90
2019-05-21T05:04:28.123Z,3.37
2019-05-21T05:06:56.941Z,5.95
2019-05-21T05:09:25.354Z,3.90
2019-05-21T05:11:54.181Z,4.15
2019-05-21T05:14:22.862Z,3.20
2019-05-21T05:16:51.321Z,3.20
2019-05-21T05:19:19.698Z,2.12
2019-05-21T05:21:48.108Z,1.72
2019-05-21T05:24:16.516Z,2.27
2019-05-21T05:26:44.973Z,1.30
2019-05-21T05:29:13.648Z,2.70
2019-05-21T05:31:42.047Z,1.37
2019-05-21T05:34:10.460Z,1.70
2019-05-21T05:36:39.217Z,1.67
2019-05-21T05:39:08.060Z,1.10
2019-05-21T05:41:36.783Z,1.32
2019-05-21T05:44:05.977Z,1.17
2019-05-21T05:46:34.389Z,1.27
2019-05-21T05:49:04.601Z,1.27
2019-05-21T05:51:33.050Z,1.45
2019-05-21T05:54:01.745Z,1.75
2019-05-21T05:56:30.202Z,1.07
2019-05-21T05:58:58.916Z,1.47
2019-05-21T06:01:28.917Z,1.60
2019-05-21T06:03:57.287Z,1.65
2019-05-21T06:06:25.699Z,1.50
2019-05-21T06:08:54.095Z,1.22
2019-05-21T06:11:22.490Z,2.05
2019-05-21T06:13:50.901Z,1.75
2019-05-21T06:16:19.351Z,1.42
2019-05-21T06:18:48.045Z,1.92
2019-05-21T06:21:18.051Z,1.55
2019-05-21T06:23:46.437Z,1.60
2019-05-21T06:26:14.833Z,2.05
2019-05-21T06:28:43.234Z,1.87
2019-05-21T06:31:11.966Z,0.80
2019-05-21T06:33:40.368Z,1.25
2019-05-21T06:36:09.109Z,1.50
2019-05-21T06:38:37.513Z,2.10
2019-05-21T06:41:05.956Z,1.87
2019-05-21T06:43:34.689Z,0.80
2019-05-21T06:46:03.345Z,1.30
2019-05-21T06:48:32.143Z,2.05
2019-05-21T06:51:00.536Z,7.25
2019-05-21T06:53:28.945Z,1.07
2019-05-21T06:55:57.341Z,5.72
2019-05-21T06:58:26.115Z,1.62
2019-05-21T07:00:54.745Z,0.88
2019-05-21T07:03:23.145Z,0.60
2019-05-21T07:05:58.789Z,1.07
2019-05-21T07:08:34.262Z,1.52
2019-05-21T07:10:52.070Z,1.00
2019-05-21T07:13:20.470Z,2.47
2019-05-21T07:15:48.851Z,0.80
2019-05-21T07:18:17.248Z,2.25
2019-05-21T07:20:45.636Z,1.02
2019-05-21T07:23:14.367Z,1.47
2019-05-21T07:25:42.774Z,1.02
2019-05-21T07:28:11.444Z,1.25
2019-05-21T07:30:40.129Z,0.53
2019-05-21T07:33:08.573Z,0.90
2019-05-21T07:35:36.936Z,2.47
2019-05-21T07:38:05.330Z,0.60
2019-05-21T07:40:34.039Z,0.85
2019-05-21T07:43:02.453Z,1.05
2019-05-21T07:45:30.843Z,0.60
2019-05-21T07:47:59.596Z,1.02
2019-05-21T07:50:27.990Z,0.70
2019-05-21T07:52:56.766Z,0.90
2019-05-21T07:55:25.547Z,1.40
2019-05-21T07:57:53.958Z,1.62
2019-05-21T08:00:22.990Z,1.45
2019-05-21T08:02:51.401Z,1.07
2019-05-21T08:05:19.840Z,1.60
2019-05-21T08:07:48.501Z,1.10
2019-05-21T08:10:16.957Z,0.90
2019-05-21T08:12:45.635Z,1.57
2019-05-21T08:15:14.374Z,2.40
2019-05-21T08:17:42.856Z,2.42
2019-05-21T08:20:12.763Z,1.95
2019-05-21T08:22:41.160Z,1.40
2019-05-21T08:25:14.242Z,1.22
2019-05-21T08:27:40.007Z,1.67
2019-05-21T08:30:09.031Z,2.10
2019-05-21T08:32:37.423Z,1.87
2019-05-21T08:35:06.375Z,1.77
2019-05-21T08:37:35.067Z,1.60
2019-05-21T08:40:04.855Z,2.08
2019-05-21T08:42:33.275Z,2.30
2019-05-21T08:45:02.875Z,3.40
2019-05-21T08:47:31.841Z,2.55
2019-05-21T08:50:00.249Z,3.55
2019-05-21T08:52:28.922Z,4.45
2019-05-21T08:54:57.334Z,3.42
2019-05-21T08:57:25.999Z,3.08
2019-05-21T08:59:54.532Z,3.40
2019-05-21T09:02:24.494Z,3.98
2019-05-21T09:04:52.914Z,2.87
2019-05-21T09:07:21.367Z,3.40
2019-05-21T09:09:51.787Z,2.40
2019-05-21T09:12:20.043Z,3.37
2019-05-21T09:14:48.449Z,3.00
2019-05-21T09:17:17.177Z,3.12
2019-05-21T09:19:45.579Z,2.30
2019-05-21T09:22:13.973Z,2.55
2019-05-21T09:24:42.776Z,2.85
2019-05-21T09:27:11.171Z,2.47
2019-05-21T09:29:39.570Z,2.55
2019-05-21T09:32:07.968Z,3.10
2019-05-21T09:34:48.160Z,2.50
2019-05-21T09:37:19.391Z,3.27
2019-05-21T09:39:36.666Z,4.30
2019-05-21T09:42:05.076Z,2.90
2019-05-21T09:44:33.809Z,3.92
2019-05-21T09:47:02.515Z,2.77
2019-05-21T09:49:30.918Z,3.33
2019-05-21T09:51:59.668Z,3.33
2019-05-21T09:54:28.159Z,3.52
2019-05-21T09:56:56.544Z,4.30
2019-05-21T09:59:32.601Z,3.37
2019-05-21T10:02:08.641Z,3.27
2019-05-21T10:04:37.056Z,3.00
2019-05-21T10:07:05.593Z,4.40
2019-05-21T10:09:34.052Z,3.67
2019-05-21T10:12:02.768Z,3.92
2019-05-21T10:14:34.104Z,4.05
2019-05-21T10:17:01.293Z,4.80
2019-05-21T10:19:29.769Z,4.35
2019-05-21T10:21:58.436Z,3.33
2019-05-21T10:24:26.845Z,2.87
2019-05-21T10:26:55.395Z,3.12
2019-05-21T10:29:24.167Z,3.25
2019-05-21T10:31:52.634Z,4.72
2019-05-21T10:34:21.111Z,2.77
2019-05-21T10:36:49.575Z,3.02
2019-05-21T10:39:18.098Z,2.50
2019-05-21T10:41:46.444Z,1.95
2019-05-21T10:44:15.214Z,2.72
2019-05-21T10:46:43.615Z,2.30
2019-05-21T10:49:12.020Z,2.42
2019-05-21T10:51:40.437Z,7.17
2019-05-21T10:54:08.923Z,1.42
2019-05-21T10:56:47.468Z,1.77
2019-05-21T10:59:07.575Z,2.02
2019-05-21T11:01:43.636Z,2.52
2019-05-21T11:04:16.615Z,1.98
2019-05-21T11:06:46.730Z,2.17
2019-05-21T11:09:19.656Z,4.62
2019-05-21T11:11:48.104Z,1.90
2019-05-21T11:14:16.592Z,4.60
2019-05-21T11:16:45.003Z,1.92
2019-05-21T11:19:13.797Z,3.77
2019-05-21T11:21:42.204Z,3.27
2019-05-21T11:24:10.988Z,2.30
2019-05-21T11:26:39.400Z,1.77
2019-05-21T11:29:07.790Z,2.45
2019-05-21T11:31:36.622Z,1.60
2019-05-21T11:34:05.300Z,1.60
2019-05-21T11:36:33.697Z,2.05
2019-05-21T11:39:02.151Z,3.77
2019-05-21T11:41:30.550Z,1.98
2019-05-21T11:43:58.949Z,1.62
2019-05-21T11:46:27.344Z,2.72
2019-05-21T11:48:55.891Z,2.55
2019-05-21T11:51:24.295Z,1.42
2019-05-21T11:53:52.685Z,2.02
2019-05-21T11:56:21.087Z,3.00
2019-05-21T11:58:49.811Z,2.58
2019-05-21T12:01:18.770Z,2.10
2019-05-21T12:03:47.167Z,2.40
2019-05-21T12:06:15.589Z,2.12
2019-05-21T12:08:56.433Z,2.65
2019-05-21T12:11:14.185Z,2.27
2019-05-21T12:13:42.860Z,3.92
2019-05-21T12:16:11.543Z,1.80
2019-05-21T12:18:39.937Z,2.20
2019-05-21T12:21:08.345Z,2.58
2019-05-21T12:23:36.766Z,2.33
2019-05-21T12:26:05.569Z,2.42
2019-05-21T12:28:34.252Z,2.55
2019-05-21T12:31:02.659Z,2.98
2019-05-21T12:33:34.927Z,3.22
2019-05-21T12:36:01.556Z,2.17
2019-05-21T12:38:30.253Z,1.90
2019-05-21T12:40:59.043Z,2.10
2019-05-21T12:43:27.432Z,1.85
2019-05-21T12:45:55.833Z,2.17
2019-05-21T12:48:24.246Z,1.92
2019-05-21T12:50:52.658Z,2.17
2019-05-21T12:53:21.371Z,2.15
2019-05-21T12:55:49.781Z,2.12
2019-05-21T12:58:18.189Z,2.67
2019-05-21T13:00:46.571Z,2.10
2019-05-21T13:03:14.975Z,2.20
2019-05-21T13:05:43.454Z,2.75
2019-05-21T13:08:11.856Z,2.60
2019-05-21T13:10:40.596Z,1.95
2019-05-21T13:13:09.068Z,2.70
2019-05-21T13:15:37.533Z,2.00
2019-05-21T13:18:06.275Z,1.47
2019-05-21T13:20:34.691Z,1.60
2019-05-21T13:23:03.092Z,1.70
2019-05-21T13:25:31.896Z,1.85
2019-05-21T13:28:00.357Z,1.52
2019-05-21T13:30:29.283Z,1.32
2019-05-21T13:32:57.692Z,1.52
2019-05-21T13:35:26.570Z,1.72
2019-05-21T13:37:55.024Z,1.05
2019-05-21T13:40:23.635Z,1.10
2019-05-21T13:42:52.043Z,1.02
2019-05-21T13:45:20.799Z,0.88
2019-05-21T13:47:49.562Z,1.25
2019-05-21T13:50:17.963Z,1.50
2019-05-21T13:52:46.635Z,1.80
2019-05-21T13:55:15.384Z,1.10
2019-05-21T13:57:43.863Z,1.00
2019-05-21T14:00:14.943Z,0.95
2019-05-21T14:02:43.444Z,0.90
2019-05-21T14:05:12.581Z,1.70
2019-05-21T14:07:41.504Z,1.55
2019-05-21T14:10:15.561Z,1.32
2019-05-21T14:12:41.105Z,1.27
2019-05-21T14:15:11.146Z,0.57
2019-05-21T14:17:39.536Z,1.10
2019-05-21T14:20:09.281Z,1.32
2019-05-21T14:22:37.686Z,0.70
2019-05-21T14:25:07.126Z,1.40
2019-05-21T14:27:44.275Z,0.55
2019-05-21T14:30:07.610Z,0.90
2019-05-21T14:32:36.132Z,0.42
2019-05-21T14:35:06.032Z,0.80
2019-05-21T14:37:34.434Z,1.98
2019-05-21T14:40:03.478Z,0.68
2019-05-21T14:42:31.859Z,0.60
2019-05-21T14:45:00.247Z,0.70
2019-05-21T14:47:28.657Z,0.50
2019-05-21T14:49:57.062Z,0.72
2019-05-21T14:52:25.477Z,0.60
2019-05-21T14:54:54.343Z,0.60
2019-05-21T14:57:23.043Z,0.98
2019-05-21T14:59:51.717Z,0.60
2019-05-21T15:02:20.415Z,0.50
2019-05-21T15:04:49.292Z,0.72
2019-05-21T15:07:17.774Z,1.45
2019-05-21T15:09:46.175Z,0.93
2019-05-21T15:12:14.582Z,0.78
2019-05-21T15:14:42.991Z,0.78
2019-05-21T15:17:11.437Z,1.00
2019-05-21T15:19:41.789Z,1.35
2019-05-21T15:22:10.261Z,1.40
2019-05-21T15:24:38.654Z,0.72
2019-05-21T15:27:07.079Z,1.20
2019-05-21T15:29:35.734Z,1.47
2019-05-21T15:32:04.220Z,1.20
2019-05-21T15:34:32.614Z,1.02
2019-05-21T15:37:01.051Z,1.12
2019-05-21T15:39:29.774Z,1.17
2019-05-21T15:41:58.192Z,1.37
2019-05-21T15:44:27.051Z,1.10
2019-05-21T15:46:55.467Z,1.40
2019-05-21T15:49:35.526Z,0.95
2019-05-21T15:51:53.988Z,0.90
2019-05-21T15:54:22.386Z,0.78
2019-05-21T15:56:50.800Z,0.90
2019-05-21T15:59:20.291Z,0.85
2019-05-21T16:01:49.473Z,1.12
2019-05-21T16:04:17.869Z,1.55
2019-05-21T16:06:46.560Z,1.35
2019-05-21T16:09:15.397Z,1.05
2019-05-21T16:11:44.034Z,1.35
2019-05-21T16:14:12.725Z,0.88
2019-05-21T16:16:41.368Z,1.20
2019-05-21T16:19:10.206Z,1.00
2019-05-21T16:21:38.618Z,1.27
2019-05-21T16:24:07.033Z,1.27
2019-05-21T16:26:35.430Z,0.90
2019-05-21T16:29:04.232Z,2.22
2019-05-21T16:31:32.623Z,1.72
2019-05-21T16:34:01.032Z,4.10
2019-05-21T16:36:29.497Z,4.90
2019-05-21T16:38:58.085Z,1.10
2019-05-21T16:41:26.548Z,2.00
2019-05-21T16:43:55.046Z,1.67
2019-05-21T16:46:23.502Z,5.95
2019-05-21T16:48:52.212Z,2.98
2019-05-21T16:51:20.591Z,1.52
2019-05-21T16:53:49.350Z,2.05
2019-05-21T16:56:17.852Z,1.65
2019-05-21T16:58:46.249Z,2.35
2019-05-21T17:01:14.964Z,2.67
2019-05-21T17:03:43.436Z,4.75
2019-05-21T17:06:11.851Z,3.95
2019-05-21T17:08:40.542Z,2.42
2019-05-21T17:11:09.163Z,4.35
2019-05-21T17:13:37.579Z,2.95
2019-05-21T17:16:06.421Z,1.92
2019-05-21T17:18:35.193Z,2.47
2019-05-21T17:21:03.590Z,1.55
2019-05-21T17:23:32.362Z,2.25
2019-05-21T17:26:00.785Z,1.82
2019-05-21T17:28:29.191Z,2.85
2019-05-21T17:30:57.940Z,2.25
2019-05-21T17:33:26.325Z,1.98
2019-05-21T17:35:54.726Z,4.53
2019-05-21T17:38:24.570Z,2.00
2019-05-21T17:40:53.482Z,2.17
2019-05-21T17:43:21.959Z,3.62
2019-05-21T17:45:50.765Z,1.62
2019-05-21T17:48:19.432Z,2.67
2019-05-21T17:50:47.837Z,2.92
2019-05-21T17:53:16.264Z,3.90
2019-05-21T17:55:44.710Z,2.60
2019-05-21T17:58:13.476Z,2.62
2019-05-21T18:00:43.520Z,3.37
2019-05-21T18:03:12.378Z,3.83
2019-05-21T18:05:41.068Z,2.75
2019-05-21T18:08:09.545Z,2.17
2019-05-21T18:10:38.120Z,2.25
2019-05-21T18:13:06.572Z,2.87
2019-05-21T18:15:35.614Z,2.83
2019-05-21T18:18:04.858Z,2.72
2019-05-21T18:20:33.401Z,3.92
2019-05-21T18:23:02.930Z,3.98
2019-05-21T18:25:31.334Z,3.12
2019-05-21T18:28:00.056Z,2.72
2019-05-21T18:30:28.533Z,4.10
2019-05-21T18:32:56.919Z,3.17
2019-05-21T18:35:25.711Z,2.98
2019-05-21T18:37:54.916Z,2.70
2019-05-21T18:40:23.317Z,3.98
2019-05-21T18:42:51.716Z,3.35
2019-05-21T18:45:20.188Z,3.25
2019-05-21T18:47:48.587Z,5.00
2019-05-21T18:50:18.029Z,3.55
2019-05-21T18:52:49.617Z,4.40
2019-05-21T18:55:16.623Z,3.27
2019-05-21T18:58:58.063Z,3.87
2019-05-21T19:01:26.910Z,3.65
2019-05-21T19:03:55.704Z,4.30
2019-05-21T19:06:24.256Z,4.37
2019-05-21T19:08:52.675Z,4.85
2019-05-21T19:11:21.506Z,3.77
2019-05-21T19:13:50.185Z,4.03
2019-05-21T19:16:18.950Z,4.25
2019-05-21T19:18:47.626Z,3.72
2019-05-21T19:21:16.405Z,5.00
2019-05-21T19:23:45.478Z,5.47
2019-05-21T19:26:13.895Z,5.12
2019-05-21T19:28:42.341Z,4.72
2019-05-21T19:31:10.782Z,4.33
2019-05-21T19:33:39.158Z,3.95
2019-05-21T19:36:07.554Z,4.37
2019-05-21T19:38:37.266Z,6.70
2019-05-21T19:41:06.208Z,4.58
2019-05-21T19:43:34.601Z,4.58
2019-05-21T19:46:03.373Z,3.35
2019-05-21T19:48:32.074Z,6.05
2019-05-21T19:51:00.625Z,3.42
2019-05-21T19:53:28.969Z,4.60
2019-05-21T19:55:57.379Z,3.37
2019-05-21T19:58:26.335Z,3.65
2019-05-21T20:00:55.430Z,3.77
2019-05-21T20:03:24.932Z,3.27
2019-05-21T20:05:53.327Z,4.53
2019-05-21T20:08:22.135Z,4.35
2019-05-21T20:10:51.246Z,4.40
2019-05-21T20:13:31.868Z,4.90
2019-05-21T20:15:50.315Z,5.30
2019-05-21T20:18:19.475Z,3.70
2019-05-21T20:20:49.748Z,4.65
2019-05-21T20:23:19.551Z,5.80
2019-05-21T20:25:56.334Z,4.12
2019-05-21T20:28:19.822Z,5.50
2019-05-21T20:30:49.030Z,5.70
2019-05-21T20:33:18.035Z,5.35
2019-05-21T20:35:47.382Z,4.78
2019-05-21T20:38:17.184Z,6.08
2019-05-21T20:40:46.182Z,5.12
2019-05-21T20:43:14.917Z,5.87
2019-05-21T20:45:43.506Z,5.72
2019-05-21T20:48:13.562Z,6.20
2019-05-21T20:50:42.423Z,5.45
2019-05-21T20:53:10.846Z,5.30
2019-05-21T20:55:39.514Z,5.53
2019-05-21T20:58:08.751Z,5.00
2019-05-21T21:00:46.848Z,5.12
2019-05-21T21:03:16.308Z,3.42
2019-05-21T21:05:48.228Z,5.50
2019-05-21T21:08:18.219Z,3.72
2019-05-21T21:10:46.691Z,4.37
2019-05-21T21:13:16.159Z,4.33
2019-05-21T21:15:44.552Z,3.30
2019-05-21T21:18:13.296Z,5.42
2019-05-21T21:20:42.394Z,4.70
2019-05-21T21:23:11.014Z,4.10
2019-05-21T21:25:39.661Z,3.45
2019-05-21T21:28:08.599Z,4.67
2019-05-21T21:30:37.424Z,3.70
2019-05-21T21:33:08.365Z,4.20
2019-05-21T21:35:37.341Z,4.22
2019-05-21T21:38:08.128Z,4.33
2019-05-21T21:40:36.922Z,4.40
2019-05-21T21:43:07.949Z,4.87
2019-05-21T21:45:36.173Z,5.08
2019-05-21T21:48:05.985Z,4.85
2019-05-21T21:50:36.130Z,5.03
2019-05-21T21:53:04.625Z,4.80
2019-05-21T21:55:33.123Z,5.87
2019-05-21T21:58:01.922Z,5.85
2019-05-21T22:00:40.828Z,7.33
2019-05-21T22:03:11.138Z,6.22
2019-05-21T22:05:40.429Z,7.10
2019-05-21T22:08:09.727Z,5.70
2019-05-21T22:10:39.429Z,6.58
2019-05-21T22:13:07.866Z,7.12
2019-05-21T22:15:36.796Z,6.70
2019-05-21T22:18:06.214Z,5.95
2019-05-21T22:20:35.049Z,6.42
2019-05-21T22:23:03.852Z,6.30
2019-05-21T22:25:32.573Z,6.40
2019-05-21T22:28:01.091Z,7.33
2019-05-21T22:30:29.746Z,5.90
2019-05-21T22:32:58.142Z,6.33
2019-05-21T22:35:26.520Z,5.70
2019-05-21T22:37:54.936Z,5.78
2019-05-21T22:40:23.894Z,5.90
2019-05-21T22:42:52.275Z,5.70
2019-05-21T22:45:21.136Z,5.92
2019-05-21T22:47:49.675Z,6.10
2019-05-21T22:50:18.500Z,5.80
2019-05-21T22:52:46.898Z,5.60
2019-05-21T22:55:15.549Z,4.87
2019-05-21T22:57:43.939Z,4.58
2019-05-21T23:00:13.730Z,4.60
2019-05-21T23:02:44.309Z,5.75
2019-05-21T23:05:12.960Z,4.10
2019-05-21T23:07:41.670Z,4.08
2019-05-21T23:10:10.947Z,3.30
2019-05-21T23:12:40.065Z,3.45
2019-05-21T23:15:24.501Z,3.65
2019-05-21T23:17:43.184Z,3.02
2019-05-21T23:20:13.272Z,3.12
2019-05-21T23:22:42.875Z,4.15
2019-05-21T23:25:12.470Z,4.45
2019-05-21T23:27:41.508Z,3.55
2019-05-21T23:30:12.296Z,3.52
2019-05-21T23:32:41.038Z,3.47
2019-05-21T23:35:14.389Z,3.17
2019-05-21T23:37:44.614Z,3.95
2019-05-21T23:40:15.507Z,2.98
2019-05-21T23:42:44.028Z,3.45
2019-05-21T23:45:14.825Z,3.08
2019-05-21T23:47:43.599Z,2.90
2019-05-21T23:50:14.311Z,4.17
2019-05-21T23:52:43.330Z,3.25
2019-05-21T23:55:12.372Z,3.05
2019-05-21T23:57:40.818Z,3.20
